Time;durP1;ratioP1;P1;durP2;ratioP2;P2;SDS_P1;SDS_P2;PMS_P1;PMS_P2;Temp;Humidity;BMP_temperature;BMP_pressure;BME280_temperature;BME280_humidity;BME280_pressure;Samples;Min_cycle;Max_cycle;Signal;HPM_P1;HPM_P2
2023/10/23 00:02:22;;;;;;;56.13;26.15;;;;;;;;;;4987639;28;20070;-60
2023/10/23 00:04:48;;;;;;;19.10;10.95;;;;;;;;;;4995614;28;20062;-60
2023/10/23 00:07:15;;;;;;;11.80;6.20;;;;;;;;;;4991919;28;20054;-59
2023/10/23 00:09:42;;;;;;;7.90;4.25;;;;;;;;;;4994624;28;20085;-60
2023/10/23 00:12:10;;;;;;;8.70;4.32;;;;;;;;;;4990417;28;20208;-62
2023/10/23 00:14:37;;;;;;;9.00;4.35;;;;;;;;;;4985641;28;20053;-62
2023/10/23 00:17:03;;;;;;;10.18;4.28;;;;;;;;;;4973423;28;20356;-60
2023/10/23 00:19:30;;;;;;;8.80;4.43;;;;;;;;;;4981474;28;20105;-61
2023/10/23 00:21:57;;;;;;;8.35;4.53;;;;;;;;;;4984842;28;20049;-61
2023/10/23 00:24:24;;;;;;;10.45;4.35;;;;;;;;;;4984847;28;20058;-61
2023/10/23 00:26:50;;;;;;;11.80;4.50;;;;;;;;;;4975777;28;20055;-61
2023/10/23 00:29:19;;;;;;;11.85;4.15;;;;;;;;;;4979461;28;20114;-60
2023/10/23 00:31:45;;;;;;;9.48;4.28;;;;;;;;;;4974432;28;20077;-60
2023/10/23 00:34:12;;;;;;;9.50;4.45;;;;;;;;;;4996260;28;20065;-60
2023/10/23 00:36:39;;;;;;;9.95;4.25;;;;;;;;;;4978845;28;20148;-61
2023/10/23 00:39:05;;;;;;;10.20;4.55;;;;;;;;;;4972821;28;20148;-60
2023/10/23 00:41:32;;;;;;;9.95;4.60;;;;;;;;;;4966279;28;20054;-60
2023/10/23 00:44:00;;;;;;;8.25;4.22;;;;;;;;;;4998811;28;20232;-60
2023/10/23 00:46:30;;;;;;;10.50;4.35;;;;;;;;;;4998026;28;20069;-59
2023/10/23 00:48:58;;;;;;;8.57;4.47;;;;;;;;;;4985668;28;20054;-61
2023/10/23 00:51:25;;;;;;;11.40;4.50;;;;;;;;;;4969039;28;20062;-60
2023/10/23 00:53:53;;;;;;;8.27;4.25;;;;;;;;;;4984430;28;20095;-60
2023/10/23 00:56:20;;;;;;;10.20;4.70;;;;;;;;;;4987399;28;20093;-60
2023/10/23 00:58:47;;;;;;;8.95;4.18;;;;;;;;;;4983384;28;20144;-60
2023/10/23 01:01:14;;;;;;;8.32;4.38;;;;;;;;;;4993061;28;20053;-61
2023/10/23 01:03:43;;;;;;;9.45;4.43;;;;;;;;;;5021473;28;20137;-61
2023/10/23 01:06:10;;;;;;;8.95;3.95;;;;;;;;;;5000830;28;20053;-58
2023/10/23 01:08:37;;;;;;;8.57;4.30;;;;;;;;;;5004569;28;20053;-61
2023/10/23 01:11:04;;;;;;;7.53;4.03;;;;;;;;;;4988851;28;20049;-63
2023/10/23 01:13:31;;;;;;;8.10;4.03;;;;;;;;;;5001805;28;20061;-62
2023/10/23 01:15:58;;;;;;;8.38;3.97;;;;;;;;;;5001182;28;20049;-62
2023/10/23 01:18:24;;;;;;;9.82;4.18;;;;;;;;;;5018556;28;20065;-62
2023/10/23 01:20:53;;;;;;;8.93;4.35;;;;;;;;;;4974470;28;20153;-63
2023/10/23 01:23:25;;;;;;;10.00;4.22;;;;;;;;;;4972978;28;20077;-62
2023/10/23 01:25:53;;;;;;;8.43;4.10;;;;;;;;;;4996344;28;20061;-62
2023/10/23 01:28:20;;;;;;;7.28;3.92;;;;;;;;;;5000701;28;20100;-62
2023/10/23 01:30:47;;;;;;;6.90;3.53;;;;;;;;;;4975154;28;20085;-63
2023/10/23 01:33:14;;;;;;;8.07;4.07;;;;;;;;;;4980926;28;20148;-61
2023/10/23 01:35:40;;;;;;;9.82;3.90;;;;;;;;;;4984166;28;20067;-60
2023/10/23 01:38:07;;;;;;;8.88;4.38;;;;;;;;;;4982460;28;20061;-61
2023/10/23 01:40:33;;;;;;;8.32;4.28;;;;;;;;;;4998695;28;20077;-61
2023/10/23 01:43:01;;;;;;;7.50;4.05;;;;;;;;;;4977953;28;20093;-62
2023/10/23 01:45:28;;;;;;;7.93;3.83;;;;;;;;;;5001960;28;20046;-60
2023/10/23 01:47:55;;;;;;;8.07;4.13;;;;;;;;;;5019227;28;20147;-61
2023/10/23 01:50:21;;;;;;;12.10;4.00;;;;;;;;;;5001152;28;20059;-61
2023/10/23 01:52:48;;;;;;;7.45;3.63;;;;;;;;;;4990380;28;20046;-61
2023/10/23 01:55:15;;;;;;;9.48;4.18;;;;;;;;;;4974586;28;20139;-61
2023/10/23 01:57:41;;;;;;;7.80;3.60;;;;;;;;;;4981556;28;20061;-61
2023/10/23 02:00:11;;;;;;;8.05;3.78;;;;;;;;;;4980233;28;20053;-60
2023/10/23 02:02:38;;;;;;;9.27;4.03;;;;;;;;;;4949431;28;20038;-63
2023/10/23 02:05:05;;;;;;;7.30;3.75;;;;;;;;;;4981331;28;20085;-61
2023/10/23 02:07:31;;;;;;;9.00;4.05;;;;;;;;;;4976099;28;20076;-62
2023/10/23 02:09:58;;;;;;;8.35;3.75;;;;;;;;;;4979034;28;20053;-61
2023/10/23 02:12:25;;;;;;;6.60;3.63;;;;;;;;;;4968603;28;20137;-61
2023/10/23 02:14:52;;;;;;;7.53;3.95;;;;;;;;;;4980495;28;20056;-61
2023/10/23 02:17:22;;;;;;;7.63;3.70;;;;;;;;;;4980807;28;20152;-61
2023/10/23 02:19:49;;;;;;;7.90;3.65;;;;;;;;;;4999868;28;20958;-62
2023/10/23 02:22:16;;;;;;;9.05;4.32;;;;;;;;;;4996097;28;20057;-61
2023/10/23 02:24:42;;;;;;;9.80;4.10;;;;;;;;;;5000436;28;20067;-61
2023/10/23 02:27:09;;;;;;;7.90;4.13;;;;;;;;;;4999468;28;20085;-61
2023/10/23 02:29:36;;;;;;;9.15;3.72;;;;;;;;;;4993573;28;20135;-62
2023/10/23 02:32:03;;;;;;;10.32;4.05;;;;;;;;;;4995070;28;20093;-61
2023/10/23 02:34:31;;;;;;;11.48;4.28;;;;;;;;;;5017231;28;20136;-62
2023/10/23 02:36:57;;;;;;;7.70;3.85;;;;;;;;;;4999381;28;20049;-62
2023/10/23 02:39:24;;;;;;;9.82;4.40;;;;;;;;;;4998087;28;20049;-62
2023/10/23 02:41:51;;;;;;;7.13;3.78;;;;;;;;;;4984399;28;20053;-62
2023/10/23 02:44:19;;;;;;;7.65;3.95;;;;;;;;;;5000874;28;20054;-61
2023/10/23 02:46:46;;;;;;;7.32;3.47;;;;;;;;;;4999899;28;20061;-60
2023/10/23 02:49:13;;;;;;;9.05;4.25;;;;;;;;;;4999878;28;20072;-60
2023/10/23 02:51:41;;;;;;;8.07;3.63;;;;;;;;;;4998215;28;20127;-61
2023/10/23 02:54:07;;;;;;;7.80;3.92;;;;;;;;;;5002742;28;20140;-60
2023/10/23 02:56:34;;;;;;;8.70;3.83;;;;;;;;;;4995781;28;20049;-61
2023/10/23 02:59:00;;;;;;;8.93;4.03;;;;;;;;;;4998245;28;20119;-61
2023/10/23 03:01:27;;;;;;;10.57;4.43;;;;;;;;;;4990258;28;20061;-61
2023/10/23 03:03:54;;;;;;;8.70;3.88;;;;;;;;;;4997438;28;20053;-60
2023/10/23 03:06:21;;;;;;;6.43;3.83;;;;;;;;;;4981318;28;20088;-61
2023/10/23 03:08:49;;;;;;;10.90;4.05;;;;;;;;;;4979807;28;20065;-61
2023/10/23 03:11:16;;;;;;;7.88;3.78;;;;;;;;;;5012685;28;20080;-60
2023/10/23 03:13:42;;;;;;;7.90;3.85;;;;;;;;;;5012076;28;20386;-62
2023/10/23 03:16:09;;;;;;;12.23;3.63;;;;;;;;;;4986119;28;20050;-62
2023/10/23 03:18:36;;;;;;;8.95;3.85;;;;;;;;;;4980659;28;20056;-61
2023/10/23 03:21:03;;;;;;;8.48;3.67;;;;;;;;;;5008525;28;20168;-61
2023/10/23 03:23:31;;;;;;;8.68;4.18;;;;;;;;;;4993186;28;20121;-61
2023/10/23 03:26:00;;;;;;;9.35;4.00;;;;;;;;;;4999228;28;20061;-61
2023/10/23 03:28:26;;;;;;;;;;;;;;;;;;5000265;28;20057;-61
2023/10/23 03:30:53;;;;;;;9.60;3.97;;;;;;;;;;5014136;28;19936;-61
2023/10/23 03:33:22;;;;;;;8.15;4.07;;;;;;;;;;4986911;28;20053;-61
2023/10/23 03:35:48;;;;;;;;;;;;;;;;;;4993575;28;20290;-63
2023/10/23 03:38:15;;;;;;;9.32;4.45;;;;;;;;;;5000098;28;19932;-60
2023/10/23 03:40:42;;;;;;;8.77;3.95;;;;;;;;;;4999084;28;20057;-61
2023/10/23 03:43:10;;;;;;;10.95;5.00;;;;;;;;;;4993103;28;20054;-61
2023/10/23 03:45:37;;;;;;;7.50;4.05;;;;;;;;;;4971487;28;20049;-60
2023/10/23 03:48:04;;;;;;;12.75;5.00;;;;;;;;;;4979911;28;20089;-61
2023/10/23 03:50:31;;;;;;;10.00;4.75;;;;;;;;;;4987287;28;20083;-61
2023/10/23 03:52:58;;;;;;;10.40;4.70;;;;;;;;;;4994815;28;20101;-61
2023/10/23 03:55:25;;;;;;;8.85;4.38;;;;;;;;;;4998945;28;20449;-60
2023/10/23 03:57:51;;;;;;;10.45;4.32;;;;;;;;;;5017279;28;20108;-61
2023/10/23 04:00:20;;;;;;;11.45;4.88;;;;;;;;;;5003404;28;20148;-61
2023/10/23 04:02:46;;;;;;;10.80;4.75;;;;;;;;;;5013545;28;20061;-61
2023/10/23 04:05:13;;;;;;;11.23;4.80;;;;;;;;;;5020601;28;20139;-61
2023/10/23 04:07:40;;;;;;;11.93;4.25;;;;;;;;;;5011769;28;20080;-61
2023/10/23 04:10:09;;;;;;;10.75;4.93;;;;;;;;;;5002421;28;20061;-61
2023/10/23 04:12:36;;;;;;;9.60;4.65;;;;;;;;;;4989314;28;20054;-61
2023/10/23 04:15:03;;;;;;;12.68;4.53;;;;;;;;;;4998808;28;20057;-61
2023/10/23 04:17:31;;;;;;;14.82;4.93;;;;;;;;;;4978079;28;20119;-61
2023/10/23 04:19:58;;;;;;;;;;;;;;;;;;4983353;28;20064;-61
2023/10/23 04:22:26;;;;;;;14.23;4.47;;;;;;;;;;4976440;28;19988;-62
2023/10/23 04:24:54;;;;;;;12.35;4.90;;;;;;;;;;4983435;28;20070;-62
2023/10/23 04:27:22;;;;;;;9.57;4.45;;;;;;;;;;4983706;28;20056;-61
2023/10/23 04:29:49;;;;;;;15.02;5.75;;;;;;;;;;4982788;28;20070;-61
2023/10/23 04:32:15;;;;;;;13.38;5.57;;;;;;;;;;4969947;28;20054;-62
2023/10/23 04:34:43;;;;;;;14.25;5.15;;;;;;;;;;4986189;28;20050;-62
2023/10/23 04:37:10;;;;;;;14.32;5.53;;;;;;;;;;5005234;28;20157;-62
2023/10/23 04:39:37;;;;;;;13.80;5.80;;;;;;;;;;4996180;28;20135;-62
2023/10/23 04:42:04;;;;;;;12.23;4.95;;;;;;;;;;5012101;28;20045;-61
2023/10/23 04:44:31;;;;;;;14.45;5.88;;;;;;;;;;5000095;28;20058;-62
2023/10/23 04:46:57;;;;;;;12.02;5.18;;;;;;;;;;4985354;28;20053;-62
2023/10/23 04:49:24;;;;;;;16.02;5.25;;;;;;;;;;4996264;28;20116;-63
2023/10/23 04:51:53;;;;;;;11.95;5.22;;;;;;;;;;4965884;28;21409;-62
2023/10/23 04:54:20;;;;;;;13.65;4.55;;;;;;;;;;4971528;28;20057;-61
2023/10/23 04:56:47;;;;;;;12.32;5.03;;;;;;;;;;4965456;28;20127;-62
2023/10/23 04:59:13;;;;;;;12.27;4.65;;;;;;;;;;4966948;28;20057;-62
2023/10/23 05:01:40;;;;;;;11.93;5.07;;;;;;;;;;4896401;28;20117;-63
2023/10/23 05:04:07;;;;;;;10.85;4.82;;;;;;;;;;4984098;28;20076;-62
2023/10/23 05:06:34;;;;;;;14.48;4.95;;;;;;;;;;4997376;28;20058;-63
2023/10/23 05:09:02;;;;;;;14.73;5.07;;;;;;;;;;4986629;28;20145;-62
2023/10/23 05:11:29;;;;;;;17.80;6.90;;;;;;;;;;4973411;28;20064;-63
2023/10/23 05:13:56;;;;;;;12.32;6.22;;;;;;;;;;4996623;28;20107;-60
2023/10/23 05:16:23;;;;;;;15.27;5.95;;;;;;;;;;4985880;28;20065;-60
2023/10/23 05:19:00;;;;;;;11.00;4.80;;;;;;;;;;4985861;28;20054;-62
2023/10/23 05:21:29;;;;;;;10.20;5.13;;;;;;;;;;4965159;28;20058;-60
2023/10/23 05:23:56;;;;;;;10.70;4.63;;;;;;;;;;5000581;28;20127;-61
2023/10/23 05:26:24;;;;;;;14.25;5.18;;;;;;;;;;4983300;28;20061;-61
2023/10/23 05:28:53;;;;;;;11.25;5.40;;;;;;;;;;4993391;28;20054;-61
2023/10/23 05:31:20;;;;;;;15.93;5.05;;;;;;;;;;4990442;28;20054;-61
2023/10/23 05:33:49;;;;;;;21.67;7.03;;;;;;;;;;5001382;28;20274;-61
2023/10/23 05:36:15;;;;;;;10.82;4.68;;;;;;;;;;5004970;28;20057;-60
2023/10/23 05:38:42;;;;;;;10.70;5.00;;;;;;;;;;5001991;28;20488;-61
2023/10/23 05:41:09;;;;;;;15.02;4.97;;;;;;;;;;5020032;28;20045;-61
2023/10/23 05:43:38;;;;;;;14.30;5.25;;;;;;;;;;5014606;28;20053;-61
2023/10/23 05:46:05;;;;;;;10.65;4.95;;;;;;;;;;5002365;28;20173;-61
2023/10/23 05:48:32;;;;;;;10.63;5.18;;;;;;;;;;5019235;28;20085;-61
2023/10/23 05:50:59;;;;;;;12.00;5.15;;;;;;;;;;5018010;28;20049;-60
2023/10/23 05:53:26;;;;;;;12.13;5.50;;;;;;;;;;4978298;28;20431;-61
2023/10/23 05:55:53;;;;;;;13.93;5.60;;;;;;;;;;4978024;28;20148;-60
2023/10/23 05:58:20;;;;;;;12.00;5.22;;;;;;;;;;4991499;28;20115;-60
2023/10/23 06:00:48;;;;;;;12.27;5.32;;;;;;;;;;4998896;28;20064;-61
2023/10/23 06:03:15;;;;;;;10.60;5.00;;;;;;;;;;5005451;28;20067;-61
2023/10/23 06:05:54;;;;;;;11.38;5.07;;;;;;;;;;4995418;28;20304;-61
2023/10/23 06:08:21;;;;;;;11.95;5.30;;;;;;;;;;5003674;28;20061;-61
2023/10/23 06:10:48;;;;;;;14.57;5.45;;;;;;;;;;4998247;28;20050;-61
2023/10/23 06:13:14;;;;;;;13.23;6.18;;;;;;;;;;4992411;28;20076;-61
2023/10/23 06:15:41;;;;;;;13.93;5.63;;;;;;;;;;4990279;28;20231;-62
2023/10/23 06:18:21;;;;;;;13.50;5.82;;;;;;;;;;4981054;28;20081;-61
2023/10/23 06:21:00;;;;;;;13.13;5.38;;;;;;;;;;4979501;28;20125;-61
2023/10/23 06:23:30;;;;;;;13.98;5.28;;;;;;;;;;4925396;28;20131;-61
2023/10/23 06:25:57;;;;;;;12.30;5.75;;;;;;;;;;4979373;28;20065;-60
2023/10/23 06:28:23;;;;;;;17.92;6.05;;;;;;;;;;4984627;28;20137;-60
2023/10/23 06:30:50;;;;;;;15.27;6.25;;;;;;;;;;4980498;28;20054;-63
2023/10/23 06:33:18;;;;;;;12.82;5.68;;;;;;;;;;4941882;28;20073;-60
2023/10/23 06:35:45;;;;;;;11.93;5.47;;;;;;;;;;4970227;28;20136;-61
2023/10/23 06:38:12;;;;;;;11.45;4.63;;;;;;;;;;4980445;28;20125;-61
2023/10/23 06:40:39;;;;;;;12.68;5.78;;;;;;;;;;4980811;28;20112;-63
2023/10/23 06:43:07;;;;;;;12.10;5.75;;;;;;;;;;4949557;28;20060;-60
2023/10/23 06:45:37;;;;;;;11.85;5.15;;;;;;;;;;4974333;28;20054;-61
2023/10/23 06:48:04;;;;;;;11.38;4.78;;;;;;;;;;5000448;28;20057;-60
2023/10/23 06:50:32;;;;;;;11.52;5.95;;;;;;;;;;4980567;28;20099;-60
2023/10/23 06:52:59;;;;;;;11.68;5.78;;;;;;;;;;4956802;28;20052;-60
2023/10/23 06:55:27;;;;;;;11.35;5.20;;;;;;;;;;5007930;28;20171;-63
2023/10/23 06:57:55;;;;;;;11.15;5.32;;;;;;;;;;5015622;28;20116;-60
2023/10/23 07:00:22;;;;;;;11.65;5.43;;;;;;;;;;4998730;28;20088;-60
2023/10/23 07:02:50;;;;;;;11.45;5.43;;;;;;;;;;4980080;28;20065;-60
2023/10/23 07:05:17;;;;;;;11.27;5.22;;;;;;;;;;5018671;28;20067;-60
2023/10/23 07:07:45;;;;;;;10.63;4.75;;;;;;;;;;4991936;28;20060;-60
2023/10/23 07:10:12;;;;;;;10.30;4.50;;;;;;;;;;5000257;28;20050;-61
2023/10/23 07:12:38;;;;;;;10.75;5.40;;;;;;;;;;4968276;28;20057;-61
2023/10/23 07:15:06;;;;;;;12.65;5.32;;;;;;;;;;5012223;28;20054;-60
2023/10/23 07:17:34;;;;;;;14.35;4.95;;;;;;;;;;4972946;28;20065;-60
2023/10/23 07:20:02;;;;;;;9.55;4.22;;;;;;;;;;4980374;28;20060;-60
2023/10/23 07:22:31;;;;;;;8.07;4.30;;;;;;;;;;4945694;28;20152;-61
2023/10/23 07:24:59;;;;;;;9.45;4.60;;;;;;;;;;4982923;28;20207;-61
2023/10/23 07:27:26;;;;;;;9.90;4.47;;;;;;;;;;5021908;28;20053;-61
2023/10/23 07:29:54;;;;;;;11.65;4.75;;;;;;;;;;5016044;28;20055;-61
2023/10/23 07:32:24;;;;;;;12.90;4.57;;;;;;;;;;4982399;28;20160;-60
2023/10/23 07:34:51;;;;;;;10.25;5.00;;;;;;;;;;5008770;28;20076;-62
2023/10/23 07:37:18;;;;;;;10.02;4.57;;;;;;;;;;5002497;28;20127;-61
2023/10/23 07:39:47;;;;;;;10.23;4.63;;;;;;;;;;5020561;28;20141;-61
2023/10/23 07:42:19;;;;;;;;;;;;;;;;;;4958207;28;20057;-60
2023/10/23 07:44:46;;;;;;;12.25;4.55;;;;;;;;;;5004940;28;19933;-61
2023/10/23 07:47:15;;;;;;;9.93;4.15;;;;;;;;;;5019674;28;20053;-60
2023/10/23 07:49:42;;;;;;;14.50;4.93;;;;;;;;;;5012090;28;20303;-60
2023/10/23 07:52:10;;;;;;;13.00;4.63;;;;;;;;;;4973395;28;20081;-62
2023/10/23 07:54:37;;;;;;;11.15;4.75;;;;;;;;;;4969800;28;20054;-61
2023/10/23 07:57:04;;;;;;;10.32;4.80;;;;;;;;;;4984006;28;20260;-62
2023/10/23 07:59:34;;;;;;;12.00;4.85;;;;;;;;;;4985796;28;20057;-63
2023/10/23 08:02:01;;;;;;;12.55;4.53;;;;;;;;;;4977657;28;20181;-63
2023/10/23 08:04:28;;;;;;;12.35;5.28;;;;;;;;;;4982859;28;20056;-62
2023/10/23 08:06:57;;;;;;;17.50;8.25;;;;;;;;;;4981807;28;20051;-62
2023/10/23 08:09:27;;;;;;;17.05;8.02;;;;;;;;;;5003850;28;20093;-62
2023/10/23 08:11:53;;;;;;;12.10;5.47;;;;;;;;;;4961848;28;20070;-60
2023/10/23 08:14:20;;;;;;;11.13;5.25;;;;;;;;;;5018821;28;20589;-60
2023/10/23 08:16:51;;;;;;;13.07;5.40;;;;;;;;;;4998726;28;20058;-61
2023/10/23 08:19:29;;;;;;;15.65;6.60;;;;;;;;;;4982829;28;20069;-60
2023/10/23 08:21:55;;;;;;;19.73;9.02;;;;;;;;;;4973772;28;20061;-60
2023/10/23 08:24:23;;;;;;;34.08;14.77;;;;;;;;;;4999846;28;20054;-61
2023/10/23 08:26:50;;;;;;;17.63;6.75;;;;;;;;;;4981050;28;20057;-60
2023/10/23 08:29:21;;;;;;;12.02;5.30;;;;;;;;;;4981709;28;20127;-60
2023/10/23 08:31:57;;;;;;;12.05;5.40;;;;;;;;;;4924282;28;20060;-62
2023/10/23 08:34:24;;;;;;;10.93;4.78;;;;;;;;;;4930719;28;20063;-61
2023/10/23 08:36:53;;;;;;;11.57;5.30;;;;;;;;;;5005752;28;20073;-63
2023/10/23 08:39:20;;;;;;;13.07;5.97;;;;;;;;;;4993372;28;20058;-62
2023/10/23 08:41:50;;;;;;;12.63;5.68;;;;;;;;;;4969450;28;20053;-60
2023/10/23 08:44:17;;;;;;;16.45;6.05;;;;;;;;;;4951878;28;20050;-60
2023/10/23 08:46:44;;;;;;;14.23;6.03;;;;;;;;;;5002237;28;20073;-62
2023/10/23 08:49:15;;;;;;;15.98;6.72;;;;;;;;;;5001452;28;20095;-62
2023/10/23 08:51:42;;;;;;;16.35;6.95;;;;;;;;;;5011821;28;20254;-62
2023/10/23 08:54:13;;;;;;;19.17;7.50;;;;;;;;;;4979209;28;20062;-60
2023/10/23 08:56:43;;;;;;;16.98;6.85;;;;;;;;;;4998180;28;20068;-60
2023/10/23 08:59:11;;;;;;;15.00;7.35;;;;;;;;;;4990648;28;20077;-60
2023/10/23 09:01:38;;;;;;;17.58;7.68;;;;;;;;;;4993040;28;20151;-60
2023/10/23 09:07:04;;;;;;;16.85;7.07;;;;;;;;;;4985002;28;20101;-60
2023/10/23 09:12:33;;;;;;;16.75;7.70;;;;;;;;;;4979800;28;20064;-61
2023/10/23 09:15:13;;;;;;;18.10;7.80;;;;;;;;;;5002959;28;20058;-61
2023/10/23 09:17:40;;;;;;;21.98;10.95;;;;;;;;;;4993592;28;20081;-62
2023/10/23 09:20:23;;;;;;;17.80;7.60;;;;;;;;;;5000904;28;20111;-61
2023/10/23 09:22:52;;;;;;;12.63;6.20;;;;;;;;;;4969780;28;20080;-62
2023/10/23 09:25:23;;;;;;;;;;;;;;;;;;5006495;28;20158;-61
2023/10/23 09:27:53;;;;;;;12.70;5.05;;;;;;;;;;4999051;28;20063;-62
2023/10/23 09:30:22;;;;;;;13.90;5.80;;;;;;;;;;5001041;28;20061;-61
2023/10/23 09:32:54;;;;;;;;;;;;;;;;;;4998873;28;20064;-60
2023/10/23 09:35:25;;;;;;;10.90;4.70;;;;;;;;;;5017264;28;19987;-60
2023/10/23 09:37:58;;;;;;;12.40;5.20;;;;;;;;;;5014309;28;20079;-61
2023/10/23 09:40:31;;;;;;;12.20;4.57;;;;;;;;;;5001844;28;20084;-60
2023/10/23 09:43:03;;;;;;;15.68;5.68;;;;;;;;;;4968198;28;20050;-60
2023/10/23 09:45:41;;;;;;;12.05;5.32;;;;;;;;;;4948967;28;20058;-61
2023/10/23 09:48:09;;;;;;;12.88;5.78;;;;;;;;;;4964331;28;20310;-61
2023/10/23 09:50:39;;;;;;;11.23;4.95;;;;;;;;;;4964678;28;20053;-62
2023/10/23 09:53:13;;;;;;;17.73;6.00;;;;;;;;;;4966058;28;20066;-62
2023/10/23 09:55:42;;;;;;;14.70;6.10;;;;;;;;;;4973010;28;20122;-62
2023/10/23 09:58:18;;;;;;;14.20;5.68;;;;;;;;;;4983052;28;20092;-61
2023/10/23 10:00:51;;;;;;;15.15;6.47;;;;;;;;;;4980367;28;20061;-61
2023/10/23 10:03:18;;;;;;;15.73;6.28;;;;;;;;;;4972126;28;20060;-60
2023/10/23 10:05:50;;;;;;;16.30;6.47;;;;;;;;;;4974279;28;20136;-61
2023/10/23 10:08:24;;;;;;;13.60;5.60;;;;;;;;;;4981845;28;20176;-61
2023/10/23 10:10:55;;;;;;;20.98;7.03;;;;;;;;;;4996626;28;20140;-61
2023/10/23 10:13:25;;;;;;;19.65;6.88;;;;;;;;;;4964801;28;20057;-61
2023/10/23 10:15:53;;;;;;;17.85;8.32;;;;;;;;;;4994225;28;20064;-61
2023/10/23 10:18:21;;;;;;;26.92;9.63;;;;;;;;;;4980676;28;20115;-62
2023/10/23 10:20:53;;;;;;;34.58;14.25;;;;;;;;;;4981016;28;20101;-60
2023/10/23 10:23:22;;;;;;;15.82;6.13;;;;;;;;;;4950071;28;20061;-61
2023/10/23 10:25:49;;;;;;;16.17;6.57;;;;;;;;;;4992549;28;21002;-60
2023/10/23 10:28:16;;;;;;;19.17;6.75;;;;;;;;;;4982070;28;20061;-60
2023/10/23 10:30:45;;;;;;;14.52;6.22;;;;;;;;;;5019273;28;20053;-61
2023/10/23 10:33:22;;;;;;;19.05;6.45;;;;;;;;;;4943131;28;20181;-62
2023/10/23 10:35:51;;;;;;;18.55;6.28;;;;;;;;;;4988306;28;20050;-61
2023/10/23 10:38:23;;;;;;;;;;;;;;;;;;4978682;28;20095;-62
2023/10/23 10:40:59;;;;;;;17.20;6.88;;;;;;;;;;4997844;28;19925;-62
2023/10/23 10:43:31;;;;;;;15.23;6.65;;;;;;;;;;4965900;28;20114;-62
2023/10/23 10:49:00;;;;;;;17.20;6.30;;;;;;;;;;5024691;28;20140;-61
2023/10/23 10:51:29;;;;;;;16.38;6.78;;;;;;;;;;5015961;28;20147;-60
2023/10/23 10:54:02;;;;;;;14.30;6.03;;;;;;;;;;4979916;28;20062;-63
2023/10/23 10:56:29;;;;;;;14.75;5.95;;;;;;;;;;4984074;28;20065;-60
2023/10/23 10:58:59;;;;;;;13.57;6.10;;;;;;;;;;4997709;28;20100;-60
2023/10/23 11:01:28;;;;;;;16.25;7.10;;;;;;;;;;4995924;28;20050;-60
2023/10/23 11:03:55;;;;;;;;;;;;;;;;;;4973709;28;20069;-63
2023/10/23 11:06:22;;;;;;;14.40;6.05;;;;;;;;;;4979224;28;19969;-61
2023/10/23 11:08:49;;;;;;;14.00;6.00;;;;;;;;;;4980085;28;20057;-61
2023/10/23 11:11:18;;;;;;;13.82;5.82;;;;;;;;;;4999731;28;20045;-60
2023/10/23 11:13:47;;;;;;;17.23;6.55;;;;;;;;;;4994939;28;20124;-60
2023/10/23 11:16:16;;;;;;;13.35;6.00;;;;;;;;;;4992009;28;20064;-61
2023/10/23 11:18:42;;;;;;;;;;;;;;;;;;5001741;28;20057;-61
2023/10/23 11:21:09;;;;;;;14.23;5.70;;;;;;;;;;5016444;28;20040;-61
2023/10/23 11:23:40;;;;;;;14.55;5.47;;;;;;;;;;4986071;28;20135;-61
2023/10/23 11:26:07;;;;;;;21.00;7.88;;;;;;;;;;4998432;28;20130;-60
2023/10/23 11:28:35;;;;;;;12.82;6.75;;;;;;;;;;5014229;28;20088;-61
2023/10/23 11:31:03;;;;;;;17.88;5.82;;;;;;;;;;4998713;28;20049;-61
2023/10/23 11:33:33;;;;;;;21.45;5.80;;;;;;;;;;4990391;28;20079;-61
2023/10/23 11:35:59;;;;;;;10.95;5.57;;;;;;;;;;4986691;28;20069;-61
2023/10/23 11:38:27;;;;;;;16.17;6.25;;;;;;;;;;4980149;28;20124;-62
2023/10/23 11:40:54;;;;;;;13.43;6.53;;;;;;;;;;4996578;28;20061;-61
2023/10/23 11:43:22;;;;;;;19.02;6.18;;;;;;;;;;4974157;28;20041;-62
2023/10/23 11:45:50;;;;;;;16.30;6.80;;;;;;;;;;4992377;28;20907;-60
2023/10/23 11:48:17;;;;;;;18.45;5.90;;;;;;;;;;4984007;28;20065;-61
2023/10/23 11:50:44;;;;;;;15.88;6.28;;;;;;;;;;5016226;28;20143;-61
2023/10/23 11:53:11;;;;;;;16.58;6.40;;;;;;;;;;4974979;28;20124;-60
2023/10/23 11:55:39;;;;;;;17.23;6.38;;;;;;;;;;4972249;28;20089;-61
2023/10/23 11:58:06;;;;;;;11.32;4.97;;;;;;;;;;4996831;28;20057;-61
2023/10/23 12:00:34;;;;;;;15.65;5.43;;;;;;;;;;4981259;28;20066;-61
2023/10/23 12:03:04;;;;;;;17.05;6.00;;;;;;;;;;4972121;28;20073;-61
2023/10/23 12:05:31;;;;;;;17.98;6.38;;;;;;;;;;4970924;28;20209;-60
2023/10/23 12:07:58;;;;;;;15.50;5.85;;;;;;;;;;4975175;28;20136;-61
2023/10/23 12:10:29;;;;;;;13.20;6.38;;;;;;;;;;4977712;28;20058;-61
2023/10/23 12:12:57;;;;;;;15.07;6.25;;;;;;;;;;4957696;28;20061;-60
2023/10/23 12:15:27;;;;;;;14.90;6.53;;;;;;;;;;4964479;28;20081;-60
2023/10/23 12:17:53;;;;;;;17.45;5.47;;;;;;;;;;4975277;28;20058;-61
2023/10/23 12:20:22;;;;;;;14.10;5.45;;;;;;;;;;4979170;28;20058;-62
2023/10/23 12:22:50;;;;;;;21.60;6.70;;;;;;;;;;4976700;28;29256;-61
2023/10/23 12:25:17;;;;;;;17.97;6.07;;;;;;;;;;4980643;28;20058;-61
2023/10/23 12:27:51;;;;;;;13.80;6.53;;;;;;;;;;4977688;28;20058;-62
2023/10/23 12:30:18;;;;;;;17.60;6.55;;;;;;;;;;4980020;28;20069;-61
2023/10/23 12:32:46;;;;;;;15.30;6.15;;;;;;;;;;4975797;28;20540;-61
2023/10/23 12:35:13;;;;;;;19.42;6.80;;;;;;;;;;4980898;28;20061;-60
2023/10/23 12:37:44;;;;;;;19.58;5.93;;;;;;;;;;4972426;28;20058;-61
2023/10/23 12:40:11;;;;;;;22.55;6.32;;;;;;;;;;4980447;28;20161;-62
2023/10/23 12:42:39;;;;;;;19.52;6.22;;;;;;;;;;4978237;28;20125;-62
2023/10/23 12:45:09;;;;;;;;;;;;;;;;;;4980235;28;20054;-61
2023/10/23 12:47:36;;;;;;;16.30;5.80;;;;;;;;;;4972639;28;19925;-60
2023/10/23 12:50:06;;;;;;;21.13;6.15;;;;;;;;;;4978514;28;20058;-60
2023/10/23 12:52:33;;;;;;;22.60;7.00;;;;;;;;;;4970665;28;20078;-60
2023/10/23 12:55:07;;;;;;;22.95;6.93;;;;;;;;;;4982920;28;20054;-62
2023/10/23 12:57:34;;;;;;;19.77;7.70;;;;;;;;;;4994795;28;20425;-62
2023/10/23 13:00:01;;;;;;;25.88;5.38;;;;;;;;;;4997337;28;20077;-61
2023/10/23 13:02:28;;;;;;;13.55;4.38;;;;;;;;;;4988208;28;20064;-61
2023/10/23 13:04:55;;;;;;;14.35;4.72;;;;;;;;;;5013326;28;20073;-61
2023/10/23 13:07:24;;;;;;;10.77;4.45;;;;;;;;;;5002055;28;20065;-61
2023/10/23 13:09:51;;;;;;;12.30;4.50;;;;;;;;;;4993401;28;21022;-61
2023/10/23 13:12:19;;;;;;;11.45;4.55;;;;;;;;;;4998482;28;20499;-61
2023/10/23 13:14:46;;;;;;;19.73;7.32;;;;;;;;;;4993768;28;20085;-60
2023/10/23 13:17:12;;;;;;;13.70;4.85;;;;;;;;;;4996087;28;20058;-61
2023/10/23 13:19:39;;;;;;;12.07;4.65;;;;;;;;;;4988613;28;20050;-61
2023/10/23 13:22:14;;;;;;;18.17;3.40;;;;;;;;;;4978748;28;20058;-60
2023/10/23 13:24:41;;;;;;;9.93;3.40;;;;;;;;;;4973832;28;20061;-61
2023/10/23 13:27:07;;;;;;;10.98;3.15;;;;;;;;;;4978238;28;20129;-61
2023/10/23 13:29:39;;;;;;;10.85;3.10;;;;;;;;;;4956019;28;20085;-61
2023/10/23 13:32:06;;;;;;;9.77;2.60;;;;;;;;;;4960912;28;20671;-59
2023/10/23 13:34:33;;;;;;;9.27;2.75;;;;;;;;;;4962186;28;20057;-61
2023/10/23 13:37:03;;;;;;;13.85;3.50;;;;;;;;;;4992885;28;20045;-62
2023/10/23 13:39:32;;;;;;;9.40;3.15;;;;;;;;;;4985780;28;20078;-62
2023/10/23 13:41:59;;;;;;;11.18;2.97;;;;;;;;;;4979741;28;20046;-61
2023/10/23 13:44:28;;;;;;;8.10;2.88;;;;;;;;;;4965509;28;20081;-60
2023/10/23 13:46:56;;;;;;;8.70;2.90;;;;;;;;;;4976252;28;20050;-60
2023/10/23 13:49:26;;;;;;;12.32;4.63;;;;;;;;;;4976189;28;20061;-61
2023/10/23 13:51:52;;;;;;;15.38;3.13;;;;;;;;;;4973580;28;20061;-59
2023/10/23 13:54:19;;;;;;;9.80;2.60;;;;;;;;;;4961675;28;20054;-60
2023/10/23 13:57:04;;;;;;;7.90;2.80;;;;;;;;;;4988239;28;20082;-61
2023/10/23 13:59:34;;;;;;;13.13;2.70;;;;;;;;;;5001236;28;20084;-61
2023/10/23 14:02:07;;;;;;;16.00;3.42;;;;;;;;;;5003316;28;20472;-60
2023/10/23 14:04:38;;;;;;;13.27;2.70;;;;;;;;;;4930799;28;20050;-60
2023/10/23 14:07:07;;;;;;;11.43;2.70;;;;;;;;;;4957939;28;20149;-60
2023/10/23 14:09:40;;;;;;;12.75;3.15;;;;;;;;;;4987450;28;20054;-60
2023/10/23 14:12:09;;;;;;;17.75;4.18;;;;;;;;;;4990592;28;20131;-60
2023/10/23 14:14:41;;;;;;;14.88;3.42;;;;;;;;;;4910554;28;20054;-62
2023/10/23 14:17:14;;;;;;;10.40;3.40;;;;;;;;;;4993863;28;20057;-61
2023/10/23 14:19:51;;;;;;;9.25;3.00;;;;;;;;;;4976954;28;20163;-61
2023/10/23 14:22:18;;;;;;;16.10;3.05;;;;;;;;;;4980223;28;20046;-60
2023/10/23 14:27:45;;;;;;;11.20;3.30;;;;;;;;;;4997085;28;20109;-62
2023/10/23 14:30:14;;;;;;;14.43;3.53;;;;;;;;;;5017918;28;20057;-62
2023/10/23 14:32:54;;;;;;;8.30;3.00;;;;;;;;;;4985950;28;20054;-61
2023/10/23 14:35:24;;;;;;;7.22;2.80;;;;;;;;;;4992722;28;20121;-60
2023/10/23 14:37:51;;;;;;;11.32;2.88;;;;;;;;;;4994763;28;20171;-61
2023/10/23 14:40:17;;;;;;;14.13;5.07;;;;;;;;;;4999721;28;20057;-61
2023/10/23 14:42:44;;;;;;;20.02;7.03;;;;;;;;;;4989474;28;20046;-61
2023/10/23 14:45:14;;;;;;;11.43;3.83;;;;;;;;;;4979061;28;20058;-61
2023/10/23 14:47:41;;;;;;;18.88;3.92;;;;;;;;;;4988068;28;20054;-60
2023/10/23 14:50:11;;;;;;;11.55;3.15;;;;;;;;;;4982785;28;20053;-61
2023/10/23 14:52:44;;;;;;;12.95;3.67;;;;;;;;;;4988274;28;20061;-61
2023/10/23 14:55:36;;;;;;;18.05;3.85;;;;;;;;;;4933097;28;20046;-63